This is the latest recevied weather packets stored in our database for station/object KO4T-4. If no packets are shown the sender has not sent any weather packets the latest 10 day(s).
| Time | Temp. | Humidity | Pressure | Rain* | Wind** | Luminosity | Snow |
|---|---|---|---|---|---|---|---|
| 1777497904 | 26.67° C | 62% | 1008.4 hPa | 0 mm | - | - | - |
| 1777497604 | 26.67° C | 64% | 1008.4 hPa | 0 mm | - | - | - |
| 1777497304 | 26.11° C | 63% | 1008.4 hPa | 0 mm | - | - | - |
| 1777497004 | 26.67° C | 62% | 1008.5 hPa | 0 mm | - | - | - |
| 1777496704 | 26.67° C | 61% | 1008.4 hPa | 0 mm | - | - | - |
| 1777496405 | 27.22° C | 60% | 1008.4 hPa | 0 mm | - | - | - |
| 1777496103 | 27.78° C | 56% | 1008.2 hPa | 0 mm | - | - | - |
| 1777495805 | 27.22° C | 59% | 1008.4 hPa | 0 mm | - | - | - |
| 1777495504 | 27.22° C | 59% | 1008.6 hPa | 0 mm | - | - | - |
| 1777495204 | 27.22° C | 59% | 1008.7 hPa | 0 mm | - | - | - |
| 1777494904 | 26.67° C | 60% | 1008.7 hPa | 0 mm | - | - | - |
| 1777494604 | 26.67° C | 58% | 1008.7 hPa | 0 mm | - | - | - |
| 1777494303 | 27.78° C | 58% | 1008.7 hPa | 0 mm | - | - | - |
| 1777494004 | 27.22° C | 59% | 1008.8 hPa | 0 mm | - | - | - |
| 1777493704 | 27.78° C | 56% | 1008.8 hPa | 0 mm | - | - | - |
| 1777493404 | 27.78° C | 58% | 1008.8 hPa | 0 mm | - | - | - |
| 1777493104 | 27.78° C | 59% | 1008.9 hPa | 0 mm | - | - | - |
| 1777492804 | 28.33° C | 57% | 1008.8 hPa | 0 mm | - | - | - |
| 1777492504 | 27.78° C | 59% | 1008.9 hPa | 0 mm | - | - | - |
| 1777492204 | 27.78° C | 60% | 1009 hPa | 0 mm | - | - | - |
| 1777491904 | 27.22° C | 61% | 1009.1 hPa | 0 mm | - | - | - |
| 1777491604 | 26.67° C | 61% | 1009.3 hPa | 0 mm | - | - | - |
| 1777491304 | 26.11° C | 64% | 1009.3 hPa | 0 mm | - | - | - |
| 1777491004 | 26.11° C | 62% | 1009.4 hPa | 0 mm | - | - | - |
| 1777490703 | 26.67° C | 62% | 1009.5 hPa | 0 mm | - | - | - |
* Rain latest hour (hover to see other rain measurements)
** Current wind speed in m/s (hover to see current wind gust speed)